sensor_id;sensor_type;location;lat;lon;timestamp;pressure;altitude;pressure_sealevel;temperature;humidity
56604;BME280;42486;47.478;19.036;2023-07-30T00:45:53;99797.81;;;23.27;66.40
56604;BME280;42486;47.478;19.036;2023-07-30T00:48:56;99791.03;;;23.31;66.32
56604;BME280;42486;47.478;19.036;2023-07-30T00:52:01;99796.19;;;23.26;66.84
56604;BME280;42486;47.478;19.036;2023-07-30T00:55:07;99793.31;;;23.27;67.16
56604;BME280;42486;47.478;19.036;2023-07-30T00:58:10;99786.97;;;23.22;67.72
56604;BME280;42486;47.478;19.036;2023-07-30T01:01:22;99781.47;;;23.17;68.04
56604;BME280;42486;47.478;19.036;2023-07-30T01:04:32;99784.50;;;23.14;68.16
56604;BME280;42486;47.478;19.036;2023-07-30T01:07:37;99779.03;;;23.08;68.45
56604;BME280;42486;47.478;19.036;2023-07-30T01:10:42;99787.00;;;23.02;68.84
56604;BME280;42486;47.478;19.036;2023-07-30T01:13:53;99782.91;;;23.06;68.08
56604;BME280;42486;47.478;19.036;2023-07-30T01:16:59;99787.44;;;22.99;68.78
56604;BME280;42486;47.478;19.036;2023-07-30T01:20:05;99782.50;;;22.96;68.67
56604;BME280;42486;47.478;19.036;2023-07-30T01:23:12;99779.22;;;22.94;68.99
56604;BME280;42486;47.478;19.036;2023-07-30T01:30:40;99764.66;;;23.03;68.29
56604;BME280;42486;47.478;19.036;2023-07-30T01:33:47;99757.69;;;23.08;68.32
56604;BME280;42486;47.478;19.036;2023-07-30T01:36:52;99754.41;;;23.00;69.07
56604;BME280;42486;47.478;19.036;2023-07-30T01:39:59;99742.09;;;22.92;69.30
56604;BME280;42486;47.478;19.036;2023-07-30T01:43:02;99752.19;;;22.90;69.28
56604;BME280;42486;47.478;19.036;2023-07-30T01:46:07;99743.34;;;22.90;69.75
56604;BME280;42486;47.478;19.036;2023-07-30T01:49:10;99753.41;;;22.81;69.65
56604;BME280;42486;47.478;19.036;2023-07-30T01:52:21;99749.53;;;22.77;70.00
56604;BME280;42486;47.478;19.036;2023-07-30T01:55:24;99737.84;;;22.71;70.54
56604;BME280;42486;47.478;19.036;2023-07-30T01:58:30;99740.34;;;22.66;70.77
56604;BME280;42486;47.478;19.036;2023-07-30T02:01:33;99744.22;;;22.63;71.92
56604;BME280;42486;47.478;19.036;2023-07-30T02:04:38;99747.28;;;22.60;72.64
56604;BME280;42486;47.478;19.036;2023-07-30T02:07:55;99745.25;;;22.56;72.57
56604;BME280;42486;47.478;19.036;2023-07-30T02:11:04;99750.16;;;22.32;74.09
56604;BME280;42486;47.478;19.036;2023-07-30T02:14:07;99748.13;;;22.28;75.19
56604;BME280;42486;47.478;19.036;2023-07-30T02:17:10;99747.72;;;22.24;74.75
56604;BME280;42486;47.478;19.036;2023-07-30T02:20:12;99760.16;;;22.17;75.35
56604;BME280;42486;47.478;19.036;2023-07-30T02:23:21;99748.94;;;22.22;76.15
56604;BME280;42486;47.478;19.036;2023-07-30T02:26:28;99757.09;;;22.13;76.46
56604;BME280;42486;47.478;19.036;2023-07-30T02:29:36;99756.03;;;21.94;78.25
56604;BME280;42486;47.478;19.036;2023-07-30T02:32:45;99754.16;;;21.88;79.23
56604;BME280;42486;47.478;19.036;2023-07-30T02:35:52;99755.97;;;21.74;80.08
56604;BME280;42486;47.478;19.036;2023-07-30T02:38:55;99753.69;;;21.65;81.11
56604;BME280;42486;47.478;19.036;2023-07-30T02:41:57;99762.06;;;21.55;81.53
56604;BME280;42486;47.478;19.036;2023-07-30T02:45:00;99758.97;;;21.51;82.92
56604;BME280;42486;47.478;19.036;2023-07-30T02:48:18;99758.75;;;21.46;83.06
56604;BME280;42486;47.478;19.036;2023-07-30T02:51:22;99762.41;;;21.45;84.28
56604;BME280;42486;47.478;19.036;2023-07-30T02:54:29;99763.41;;;21.38;85.12
56604;BME280;42486;47.478;19.036;2023-07-30T02:57:35;99765.78;;;21.26;85.75
56604;BME280;42486;47.478;19.036;2023-07-30T03:00:52;99759.19;;;21.15;86.51
56604;BME280;42486;47.478;19.036;2023-07-30T03:04:06;99761.44;;;21.18;86.15
56604;BME280;42486;47.478;19.036;2023-07-30T03:07:22;99766.72;;;21.11;86.80
56604;BME280;42486;47.478;19.036;2023-07-30T03:10:25;99754.44;;;21.04;87.78
56604;BME280;42486;47.478;19.036;2023-07-30T03:13:29;99760.00;;;21.09;87.36
56604;BME280;42486;47.478;19.036;2023-07-30T03:16:33;99763.63;;;21.01;87.91
56604;BME280;42486;47.478;19.036;2023-07-30T03:19:44;99760.72;;;20.96;89.09
56604;BME280;42486;47.478;19.036;2023-07-30T03:22:54;99757.44;;;20.94;89.30
56604;BME280;42486;47.478;19.036;2023-07-30T03:25:59;99758.66;;;20.92;89.02
56604;BME280;42486;47.478;19.036;2023-07-30T03:29:03;99762.31;;;20.91;89.96
56604;BME280;42486;47.478;19.036;2023-07-30T03:32:28;99759.69;;;20.91;90.19
56604;BME280;42486;47.478;19.036;2023-07-30T03:35:31;99760.28;;;20.93;90.25
56604;BME280;42486;47.478;19.036;2023-07-30T03:38:34;99761.53;;;20.97;89.79
56604;BME280;42486;47.478;19.036;2023-07-30T03:41:42;99764.37;;;20.95;89.95
56604;BME280;42486;47.478;19.036;2023-07-30T03:44:53;99765.25;;;21.02;89.55
56604;BME280;42486;47.478;19.036;2023-07-30T03:48:01;99762.81;;;21.07;89.89
56604;BME280;42486;47.478;19.036;2023-07-30T03:51:04;99774.69;;;21.11;88.78
56604;BME280;42486;47.478;19.036;2023-07-30T03:54:11;99772.34;;;21.30;88.48
56604;BME280;42486;47.478;19.036;2023-07-30T03:57:13;99763.59;;;21.36;87.72
56604;BME280;42486;47.478;19.036;2023-07-30T04:00:17;99768.09;;;21.36;87.22
56604;BME280;42486;47.478;19.036;2023-07-30T04:03:20;99770.97;;;21.41;86.35
56604;BME280;42486;47.478;19.036;2023-07-30T04:06:25;99775.94;;;21.50;86.15
56604;BME280;42486;47.478;19.036;2023-07-30T04:09:29;99777.63;;;21.65;85.53
56604;BME280;42486;47.478;19.036;2023-07-30T04:12:50;99784.62;;;21.86;81.85
56604;BME280;42486;47.478;19.036;2023-07-30T04:15:54;99791.66;;;22.00;81.08
56604;BME280;42486;47.478;19.036;2023-07-30T04:18:58;99794.53;;;22.12;80.20
56604;BME280;42486;47.478;19.036;2023-07-30T04:22:01;99803.53;;;22.17;80.20
56604;BME280;42486;47.478;19.036;2023-07-30T04:25:05;99799.25;;;22.16;80.51
56604;BME280;42486;47.478;19.036;2023-07-30T04:28:22;99800.88;;;22.17;80.60
56604;BME280;42486;47.478;19.036;2023-07-30T04:31:28;99808.06;;;22.17;79.88
56604;BME280;42486;47.478;19.036;2023-07-30T04:49:12;99807.50;;;22.41;77.50
56604;BME280;42486;47.478;19.036;2023-07-30T04:52:15;99811.19;;;22.47;77.26
56604;BME280;42486;47.478;19.036;2023-07-30T04:55:29;99810.81;;;22.63;75.41
56604;BME280;42486;47.478;19.036;2023-07-30T04:58:31;99814.28;;;22.64;76.74
56604;BME280;42486;47.478;19.036;2023-07-30T05:01:34;99811.37;;;22.65;79.61
56604;BME280;42486;47.478;19.036;2023-07-30T05:04:38;99811.59;;;22.71;78.60
56604;BME280;42486;47.478;19.036;2023-07-30T05:08:10;99816.94;;;22.71;82.58
56604;BME280;42486;47.478;19.036;2023-07-30T05:11:36;99818.16;;;22.75;80.18
56604;BME280;42486;47.478;19.036;2023-07-30T05:15:02;99820.22;;;22.79;79.75
56604;BME280;42486;47.478;19.036;2023-07-30T05:18:07;99813.25;;;22.78;79.84
56604;BME280;42486;47.478;19.036;2023-07-30T05:21:15;99818.16;;;22.75;78.12
56604;BME280;42486;47.478;19.036;2023-07-30T05:24:18;99817.75;;;22.78;80.28
56604;BME280;42486;47.478;19.036;2023-07-30T05:27:24;99820.41;;;22.84;79.09
56604;BME280;42486;47.478;19.036;2023-07-30T05:30:30;99814.03;;;22.92;76.81
56604;BME280;42486;47.478;19.036;2023-07-30T05:33:33;99810.37;;;23.00;79.62
56604;BME280;42486;47.478;19.036;2023-07-30T05:36:45;99808.53;;;23.07;78.95
56604;BME280;42486;47.478;19.036;2023-07-30T05:40:02;99809.31;;;23.21;78.22
56604;BME280;42486;47.478;19.036;2023-07-30T05:43:10;99809.69;;;23.24;75.77
56604;BME280;42486;47.478;19.036;2023-07-30T05:46:36;99813.22;;;23.25;76.52
56604;BME280;42486;47.478;19.036;2023-07-30T05:49:45;99818.31;;;23.33;75.42
56604;BME280;42486;47.478;19.036;2023-07-30T05:52:55;99822.00;;;23.32;75.99
56604;BME280;42486;47.478;19.036;2023-07-30T05:55:59;99817.91;;;23.29;74.10
56604;BME280;42486;47.478;19.036;2023-07-30T05:59:02;99821.22;;;23.25;75.31
56604;BME280;42486;47.478;19.036;2023-07-30T06:02:08;99824.88;;;23.24;74.60
56604;BME280;42486;47.478;19.036;2023-07-30T06:05:25;99823.66;;;23.33;74.51
56604;BME280;42486;47.478;19.036;2023-07-30T06:08:51;99830.38;;;23.49;74.36
56604;BME280;42486;47.478;19.036;2023-07-30T06:11:59;99819.66;;;23.62;73.93
56604;BME280;42486;47.478;19.036;2023-07-30T06:15:06;99820.81;;;23.80;73.98
56604;BME280;42486;47.478;19.036;2023-07-30T06:18:09;99816.09;;;23.82;72.53
56604;BME280;42486;47.478;19.036;2023-07-30T06:21:17;99818.53;;;23.90;71.64
56604;BME280;42486;47.478;19.036;2023-07-30T06:24:26;99821.62;;;23.87;71.65
56604;BME280;42486;47.478;19.036;2023-07-30T06:27:33;99827.59;;;23.69;71.64
56604;BME280;42486;47.478;19.036;2023-07-30T06:30:40;99816.75;;;23.70;71.42
56604;BME280;42486;47.478;19.036;2023-07-30T06:33:55;99823.50;;;23.80;71.15
56604;BME280;42486;47.478;19.036;2023-07-30T06:36:58;99824.03;;;23.95;71.95
56604;BME280;42486;47.478;19.036;2023-07-30T06:40:03;99823.75;;;24.10;71.72
56604;BME280;42486;47.478;19.036;2023-07-30T06:43:09;99823.41;;;24.31;70.22
56604;BME280;42486;47.478;19.036;2023-07-30T06:46:20;99822.16;;;24.66;69.88
56604;BME280;42486;47.478;19.036;2023-07-30T06:49:37;99822.72;;;24.74;67.72
56604;BME280;42486;47.478;19.036;2023-07-30T06:52:50;99829.47;;;24.77;66.31
56604;BME280;42486;47.478;19.036;2023-07-30T06:55:55;99823.84;;;24.60;66.97
56604;BME280;42486;47.478;19.036;2023-07-30T06:58:58;99822.00;;;24.60;66.01
56604;BME280;42486;47.478;19.036;2023-07-30T07:02:02;99816.22;;;24.64;66.48
56604;BME280;42486;47.478;19.036;2023-07-30T07:05:15;99817.13;;;24.76;67.58
56604;BME280;42486;47.478;19.036;2023-07-30T07:08:28;99817.19;;;24.69;69.87
56604;BME280;42486;47.478;19.036;2023-07-30T07:11:48;99821.88;;;24.49;71.15
56604;BME280;42486;47.478;19.036;2023-07-30T07:15:00;99836.94;;;24.36;72.69
56604;BME280;42486;47.478;19.036;2023-07-30T07:18:04;99849.34;;;24.24;71.63
56604;BME280;42486;47.478;19.036;2023-07-30T07:21:07;99861.91;;;24.17;72.54
56604;BME280;42486;47.478;19.036;2023-07-30T07:24:10;99859.03;;;24.12;73.17
56604;BME280;42486;47.478;19.036;2023-07-30T07:27:14;99867.59;;;23.89;78.59
56604;BME280;42486;47.478;19.036;2023-07-30T07:30:18;99865.47;;;23.39;82.90
56604;BME280;42486;47.478;19.036;2023-07-30T07:33:30;99876.34;;;22.64;94.48
56604;BME280;42486;47.478;19.036;2023-07-30T07:36:45;99879.22;;;21.95;100.00
56604;BME280;42486;47.478;19.036;2023-07-30T07:39:49;99875.50;;;21.48;100.00
56604;BME280;42486;47.478;19.036;2023-07-30T07:42:55;99870.63;;;21.23;100.00
56604;BME280;42486;47.478;19.036;2023-07-30T07:50:02;99870.38;;;21.18;100.00
56604;BME280;42486;47.478;19.036;2023-07-30T07:53:25;99871.16;;;21.40;100.00
56604;BME280;42486;47.478;19.036;2023-07-30T07:56:32;99877.59;;;21.52;100.00
56604;BME280;42486;47.478;19.036;2023-07-30T08:03:50;99892.78;;;21.65;99.82
56604;BME280;42486;47.478;19.036;2023-07-30T08:07:04;99898.62;;;21.54;100.00
56604;BME280;42486;47.478;19.036;2023-07-30T08:10:19;99898.06;;;21.30;100.00
56604;BME280;42486;47.478;19.036;2023-07-30T08:13:34;99903.19;;;21.04;100.00
56604;BME280;42486;47.478;19.036;2023-07-30T08:16:37;99903.91;;;20.91;100.00
56604;BME280;42486;47.478;19.036;2023-07-30T08:19:51;99907.28;;;20.85;100.00
56604;BME280;42486;47.478;19.036;2023-07-30T08:23:06;99915.59;;;20.54;100.00
56604;BME280;42486;47.478;19.036;2023-07-30T08:26:11;99906.97;;;20.15;100.00
56604;BME280;42486;47.478;19.036;2023-07-30T08:29:33;99910.47;;;20.01;100.00
56604;BME280;42486;47.478;19.036;2023-07-30T08:32:44;99918.81;;;19.83;100.00
56604;BME280;42486;47.478;19.036;2023-07-30T08:35:56;99924.28;;;19.67;100.00
56604;BME280;42486;47.478;19.036;2023-07-30T08:39:01;99918.94;;;19.52;100.00
56604;BME280;42486;47.478;19.036;2023-07-30T08:42:09;99921.97;;;19.49;100.00
56604;BME280;42486;47.478;19.036;2023-07-30T08:45:12;99915.94;;;19.40;100.00
56604;BME280;42486;47.478;19.036;2023-07-30T08:48:15;99922.03;;;19.26;100.00
56604;BME280;42486;47.478;19.036;2023-07-30T08:51:21;99919.69;;;19.31;100.00
56604;BME280;42486;47.478;19.036;2023-07-30T08:54:26;99911.66;;;19.39;100.00
56604;BME280;42486;47.478;19.036;2023-07-30T08:57:30;99918.31;;;19.50;100.00
56604;BME280;42486;47.478;19.036;2023-07-30T09:00:36;99915.09;;;19.54;100.00
56604;BME280;42486;47.478;19.036;2023-07-30T09:03:40;99917.87;;;19.61;100.00
56604;BME280;42486;47.478;19.036;2023-07-30T09:06:47;99918.31;;;19.65;100.00
56604;BME280;42486;47.478;19.036;2023-07-30T09:09:54;99919.09;;;19.73;100.00
56604;BME280;42486;47.478;19.036;2023-07-30T09:12:57;99916.97;;;19.84;100.00
56604;BME280;42486;47.478;19.036;2023-07-30T09:16:10;99902.63;;;19.78;100.00
56604;BME280;42486;47.478;19.036;2023-07-30T09:19:17;99906.16;;;19.55;100.00
56604;BME280;42486;47.478;19.036;2023-07-30T09:22:26;99911.47;;;19.55;100.00
56604;BME280;42486;47.478;19.036;2023-07-30T09:25:29;99923.28;;;19.83;100.00
56604;BME280;42486;47.478;19.036;2023-07-30T09:28:32;99916.50;;;20.10;100.00
56604;BME280;42486;47.478;19.036;2023-07-30T09:31:52;99915.19;;;20.20;100.00
56604;BME280;42486;47.478;19.036;2023-07-30T09:35:10;99914.00;;;20.23;100.00
56604;BME280;42486;47.478;19.036;2023-07-30T09:38:13;99913.75;;;20.39;100.00
56604;BME280;42486;47.478;19.036;2023-07-30T09:41:15;99914.59;;;20.40;100.00
56604;BME280;42486;47.478;19.036;2023-07-30T09:44:19;99907.69;;;20.24;100.00
56604;BME280;42486;47.478;19.036;2023-07-30T09:47:22;99907.19;;;19.99;100.00
56604;BME280;42486;47.478;19.036;2023-07-30T09:50:25;99908.16;;;20.13;100.00
56604;BME280;42486;47.478;19.036;2023-07-30T09:53:27;99905.34;;;20.14;100.00
56604;BME280;42486;47.478;19.036;2023-07-30T09:56:31;99910.09;;;20.04;100.00
56604;BME280;42486;47.478;19.036;2023-07-30T09:59:33;99907.63;;;20.02;100.00
56604;BME280;42486;47.478;19.036;2023-07-30T10:02:39;99900.78;;;20.08;100.00
56604;BME280;42486;47.478;19.036;2023-07-30T10:05:46;99906.03;;;20.23;100.00
56604;BME280;42486;47.478;19.036;2023-07-30T10:08:51;99904.03;;;20.10;100.00
56604;BME280;42486;47.478;19.036;2023-07-30T10:11:55;99897.47;;;20.06;100.00
56604;BME280;42486;47.478;19.036;2023-07-30T10:14:57;99907.44;;;20.04;100.00
56604;BME280;42486;47.478;19.036;2023-07-30T10:18:00;99907.97;;;20.14;100.00
56604;BME280;42486;47.478;19.036;2023-07-30T10:21:07;99915.66;;;20.24;100.00
56604;BME280;42486;47.478;19.036;2023-07-30T10:24:11;99907.22;;;20.20;100.00
56604;BME280;42486;47.478;19.036;2023-07-30T10:27:23;99914.00;;;20.23;100.00
56604;BME280;42486;47.478;19.036;2023-07-30T10:30:31;99915.50;;;19.96;100.00
56604;BME280;42486;47.478;19.036;2023-07-30T10:33:45;99913.12;;;20.01;100.00
56604;BME280;42486;47.478;19.036;2023-07-30T10:36:50;99901.06;;;19.98;100.00
56604;BME280;42486;47.478;19.036;2023-07-30T10:39:53;99907.44;;;20.04;100.00
56604;BME280;42486;47.478;19.036;2023-07-30T10:42:56;99900.94;;;20.07;100.00
56604;BME280;42486;47.478;19.036;2023-07-30T10:45:59;99899.94;;;20.08;100.00
56604;BME280;42486;47.478;19.036;2023-07-30T10:49:03;99893.63;;;20.09;100.00
56604;BME280;42486;47.478;19.036;2023-07-30T10:52:06;99893.38;;;20.04;100.00
56604;BME280;42486;47.478;19.036;2023-07-30T10:55:09;99889.97;;;20.10;100.00
56604;BME280;42486;47.478;19.036;2023-07-30T10:58:13;99892.44;;;20.11;100.00
56604;BME280;42486;47.478;19.036;2023-07-30T11:01:16;99890.75;;;20.25;100.00
56604;BME280;42486;47.478;19.036;2023-07-30T11:04:20;99886.69;;;20.29;100.00
56604;BME280;42486;47.478;19.036;2023-07-30T11:07:24;99889.19;;;20.31;100.00
56604;BME280;42486;47.478;19.036;2023-07-30T11:10:26;99888.88;;;20.40;100.00
56604;BME280;42486;47.478;19.036;2023-07-30T11:13:29;99891.72;;;20.54;100.00
56604;BME280;42486;47.478;19.036;2023-07-30T11:16:32;99885.81;;;20.80;100.00
56604;BME280;42486;47.478;19.036;2023-07-30T11:19:43;99881.13;;;20.82;100.00
56604;BME280;42486;47.478;19.036;2023-07-30T11:22:46;99882.25;;;20.94;100.00
56604;BME280;42486;47.478;19.036;2023-07-30T11:25:49;99890.12;;;20.81;100.00
56604;BME280;42486;47.478;19.036;2023-07-30T11:28:52;99895.56;;;20.73;100.00
56604;BME280;42486;47.478;19.036;2023-07-30T11:31:58;99886.41;;;20.75;100.00
56604;BME280;42486;47.478;19.036;2023-07-30T11:35:01;99889.31;;;20.80;100.00
56604;BME280;42486;47.478;19.036;2023-07-30T11:38:04;99896.56;;;20.93;100.00
56604;BME280;42486;47.478;19.036;2023-07-30T11:41:08;99898.31;;;21.07;100.00
56604;BME280;42486;47.478;19.036;2023-07-30T11:44:34;99900.06;;;21.00;100.00
56604;BME280;42486;47.478;19.036;2023-07-30T11:47:43;99896.88;;;21.11;100.00
56604;BME280;42486;47.478;19.036;2023-07-30T11:50:47;99898.66;;;21.26;100.00
56604;BME280;42486;47.478;19.036;2023-07-30T11:53:53;99905.59;;;21.27;100.00
56604;BME280;42486;47.478;19.036;2023-07-30T11:56:58;99900.53;;;21.32;100.00
56604;BME280;42486;47.478;19.036;2023-07-30T12:00:00;99894.81;;;21.35;100.00
56604;BME280;42486;47.478;19.036;2023-07-30T12:03:04;99891.97;;;21.37;100.00
56604;BME280;42486;47.478;19.036;2023-07-30T12:06:09;99896.38;;;21.51;100.00
56604;BME280;42486;47.478;19.036;2023-07-30T12:09:22;99895.97;;;21.54;100.00
56604;BME280;42486;47.478;19.036;2023-07-30T12:12:34;99896.22;;;21.59;100.00
56604;BME280;42486;47.478;19.036;2023-07-30T12:15:38;99900.94;;;21.64;100.00
56604;BME280;42486;47.478;19.036;2023-07-30T12:18:47;99897.09;;;21.66;100.00
56604;BME280;42486;47.478;19.036;2023-07-30T12:22:03;99887.88;;;21.62;100.00
56604;BME280;42486;47.478;19.036;2023-07-30T12:25:10;99890.94;;;21.66;100.00
56604;BME280;42486;47.478;19.036;2023-07-30T12:28:37;99898.75;;;21.74;100.00
56604;BME280;42486;47.478;19.036;2023-07-30T12:31:41;99902.37;;;21.60;100.00
56604;BME280;42486;47.478;19.036;2023-07-30T12:35:03;99900.59;;;21.73;100.00
56604;BME280;42486;47.478;19.036;2023-07-30T15:26:13;99723.72;;;25.43;71.48
56604;BME280;42486;47.478;19.036;2023-07-30T15:29:18;99711.44;;;25.54;72.43
56604;BME280;42486;47.478;19.036;2023-07-30T15:32:22;99717.13;;;25.57;72.69
56604;BME280;42486;47.478;19.036;2023-07-30T15:35:25;99708.88;;;25.59;72.56
56604;BME280;42486;47.478;19.036;2023-07-30T15:38:28;99701.00;;;25.64;73.36
56604;BME280;42486;47.478;19.036;2023-07-30T15:41:34;99702.38;;;25.66;72.12
56604;BME280;42486;47.478;19.036;2023-07-30T15:44:43;99699.69;;;25.66;72.64
56604;BME280;42486;47.478;19.036;2023-07-30T15:47:58;99714.06;;;25.72;72.48
56604;BME280;42486;47.478;19.036;2023-07-30T15:51:03;99719.81;;;25.57;71.86
56604;BME280;42486;47.478;19.036;2023-07-30T15:54:15;99730.09;;;25.23;73.83
56604;BME280;42486;47.478;19.036;2023-07-30T15:57:20;99728.09;;;24.82;76.29
56604;BME280;42486;47.478;19.036;2023-07-30T16:00:23;99728.34;;;24.55;76.67
56604;BME280;42486;47.478;19.036;2023-07-30T16:03:26;99731.97;;;24.36;77.33
56604;BME280;42486;47.478;19.036;2023-07-30T16:06:30;99739.97;;;24.11;75.44
56604;BME280;42486;47.478;19.036;2023-07-30T16:09:36;99745.12;;;24.06;76.33
56604;BME280;42486;47.478;19.036;2023-07-30T16:12:45;99745.84;;;23.94;76.64
56604;BME280;42486;47.478;19.036;2023-07-30T16:16:12;99735.44;;;23.80;75.78
56604;BME280;42486;47.478;19.036;2023-07-30T16:19:16;99741.59;;;23.80;76.67
56604;BME280;42486;47.478;19.036;2023-07-30T16:22:20;99741.19;;;23.83;76.77
56604;BME280;42486;47.478;19.036;2023-07-30T16:25:33;99732.47;;;23.56;76.50
56604;BME280;42486;47.478;19.036;2023-07-30T16:28:37;99733.69;;;23.60;77.97
56604;BME280;42486;47.478;19.036;2023-07-30T16:31:39;99735.38;;;23.55;77.40
56604;BME280;42486;47.478;19.036;2023-07-30T16:34:44;99731.28;;;23.45;77.98
56604;BME280;42486;47.478;19.036;2023-07-30T16:37:48;99732.38;;;23.31;79.39
56604;BME280;42486;47.478;19.036;2023-07-30T16:40:54;99733.81;;;23.34;80.15
56604;BME280;42486;47.478;19.036;2023-07-30T16:44:06;99734.84;;;23.33;80.37
56604;BME280;42486;47.478;19.036;2023-07-30T16:47:16;99738.56;;;23.25;81.28
56604;BME280;42486;47.478;19.036;2023-07-30T16:50:20;99736.97;;;23.17;82.26
56604;BME280;42486;47.478;19.036;2023-07-30T16:53:32;99744.75;;;23.12;82.73
56604;BME280;42486;47.478;19.036;2023-07-30T16:56:35;99749.28;;;23.05;83.19
56604;BME280;42486;47.478;19.036;2023-07-30T16:59:40;99750.53;;;22.96;84.24
56604;BME280;42486;47.478;19.036;2023-07-30T17:02:45;99754.41;;;22.93;84.40
56604;BME280;42486;47.478;19.036;2023-07-30T17:05:59;99759.13;;;22.84;85.28
56604;BME280;42486;47.478;19.036;2023-07-30T17:09:03;99768.78;;;22.79;86.50
56604;BME280;42486;47.478;19.036;2023-07-30T17:12:05;99771.06;;;22.62;86.62
56604;BME280;42486;47.478;19.036;2023-07-30T17:15:11;99769.62;;;22.53;87.45
56604;BME280;42486;47.478;19.036;2023-07-30T17:18:19;99770.00;;;22.63;87.91
56604;BME280;42486;47.478;19.036;2023-07-30T17:21:36;99780.87;;;22.68;87.84
56604;BME280;42486;47.478;19.036;2023-07-30T17:24:39;99787.03;;;22.75;87.55
56604;BME280;42486;47.478;19.036;2023-07-30T17:27:46;99792.75;;;22.79;88.03
56604;BME280;42486;47.478;19.036;2023-07-30T17:30:58;99796.84;;;22.75;88.55
56604;BME280;42486;47.478;19.036;2023-07-30T17:34:22;99791.34;;;22.70;89.35
56604;BME280;42486;47.478;19.036;2023-07-30T17:41:14;99789.06;;;22.73;89.39
56604;BME280;42486;47.478;19.036;2023-07-30T17:44:17;99780.66;;;22.63;91.86
56604;BME280;42486;47.478;19.036;2023-07-30T17:47:20;99787.03;;;22.55;91.33
56604;BME280;42486;47.478;19.036;2023-07-30T17:50:23;99788.88;;;22.48;91.32
56604;BME280;42486;47.478;19.036;2023-07-30T17:53:26;99794.41;;;22.47;91.03
56604;BME280;42486;47.478;19.036;2023-07-30T17:56:36;99794.81;;;22.43;94.09
56604;BME280;42486;47.478;19.036;2023-07-30T17:59:41;99804.41;;;22.31;93.04
56604;BME280;42486;47.478;19.036;2023-07-30T18:02:45;99808.31;;;22.22;96.53
56604;BME280;42486;47.478;19.036;2023-07-30T18:05:49;99808.66;;;22.06;97.36
56604;BME280;42486;47.478;19.036;2023-07-30T18:09:11;99821.31;;;22.04;98.28
56604;BME280;42486;47.478;19.036;2023-07-30T18:12:36;99824.16;;;21.95;97.56
56604;BME280;42486;47.478;19.036;2023-07-30T18:15:47;99826.37;;;21.85;97.63
56604;BME280;42486;47.478;19.036;2023-07-30T18:18:51;99816.38;;;21.94;98.26
56604;BME280;42486;47.478;19.036;2023-07-30T18:22:05;99833.78;;;21.90;97.49
56604;BME280;42486;47.478;19.036;2023-07-30T18:25:08;99829.25;;;21.84;97.48
56604;BME280;42486;47.478;19.036;2023-07-30T18:28:12;99833.13;;;21.81;95.93
56604;BME280;42486;47.478;19.036;2023-07-30T18:31:21;99820.44;;;21.76;95.83
56604;BME280;42486;47.478;19.036;2023-07-30T18:34:36;99828.34;;;21.63;97.08
56604;BME280;42486;47.478;19.036;2023-07-30T18:37:39;99832.84;;;21.63;97.43
56604;BME280;42486;47.478;19.036;2023-07-30T18:40:42;99832.38;;;21.52;98.49
56604;BME280;42486;47.478;19.036;2023-07-30T18:43:45;99838.34;;;21.54;99.60
56604;BME280;42486;47.478;19.036;2023-07-30T18:46:54;99841.81;;;21.55;100.00
56604;BME280;42486;47.478;19.036;2023-07-30T18:50:03;99843.59;;;21.48;100.00
56604;BME280;42486;47.478;19.036;2023-07-30T18:53:09;99842.56;;;21.42;100.00
56604;BME280;42486;47.478;19.036;2023-07-30T18:56:26;99853.31;;;21.34;100.00
56604;BME280;42486;47.478;19.036;2023-07-30T18:59:38;99854.06;;;21.21;100.00
56604;BME280;42486;47.478;19.036;2023-07-30T19:02:41;99862.59;;;21.17;100.00
56604;BME280;42486;47.478;19.036;2023-07-30T19:05:52;99866.25;;;21.09;100.00
56604;BME280;42486;47.478;19.036;2023-07-30T19:08:59;99876.16;;;21.00;100.00
56604;BME280;42486;47.478;19.036;2023-07-30T19:12:02;99871.00;;;20.92;100.00
56604;BME280;42486;47.478;19.036;2023-07-30T19:15:06;99882.41;;;20.86;100.00
56604;BME280;42486;47.478;19.036;2023-07-30T19:18:11;99887.03;;;20.77;100.00
56604;BME280;42486;47.478;19.036;2023-07-30T19:21:16;99891.06;;;20.73;100.00
56604;BME280;42486;47.478;19.036;2023-07-30T19:24:19;99886.97;;;20.71;100.00
56604;BME280;42486;47.478;19.036;2023-07-30T19:27:23;99896.56;;;20.72;100.00
56604;BME280;42486;47.478;19.036;2023-07-30T19:30:44;99886.78;;;20.72;100.00
56604;BME280;42486;47.478;19.036;2023-07-30T19:34:14;99877.38;;;20.70;100.00
56604;BME280;42486;47.478;19.036;2023-07-30T19:37:19;99877.38;;;20.70;100.00
56604;BME280;42486;47.478;19.036;2023-07-30T19:40:23;99875.31;;;20.72;100.00
56604;BME280;42486;47.478;19.036;2023-07-30T19:43:34;99878.81;;;20.72;100.00
56604;BME280;42486;47.478;19.036;2023-07-30T19:46:38;99885.13;;;20.71;100.00
56604;BME280;42486;47.478;19.036;2023-07-30T19:49:43;99883.66;;;20.68;100.00
56604;BME280;42486;47.478;19.036;2023-07-30T19:52:47;99890.81;;;20.68;100.00
56604;BME280;42486;47.478;19.036;2023-07-30T19:55:51;99877.53;;;20.68;100.00
56604;BME280;42486;47.478;19.036;2023-07-30T19:59:09;99876.50;;;20.69;100.00
56604;BME280;42486;47.478;19.036;2023-07-30T20:02:13;99877.38;;;20.70;100.00
56604;BME280;42486;47.478;19.036;2023-07-30T20:05:17;99874.25;;;20.66;100.00
56604;BME280;42486;47.478;19.036;2023-07-30T20:08:26;99874.84;;;20.61;100.00
56604;BME280;42486;47.478;19.036;2023-07-30T20:11:42;99879.50;;;20.59;100.00
56604;BME280;42486;47.478;19.036;2023-07-30T20:15:08;99878.87;;;20.57;100.00
56604;BME280;42486;47.478;19.036;2023-07-30T20:18:11;99873.13;;;20.54;100.00